| Date | Time | Temp. (oF) | Dew Point (oF) | Rel. Hum. (%) | Press. (in.) | Wind Dir. | Wind Speed (mph) | Hourly Rainfall (in.) |
|
|---|---|---|---|---|---|---|---|---|---|
| 1 | 08/26 | 00:00 | 65 | 63 | 95 | 29.91 | SW | 0 | 0.00 |
| 2 | 08/25 | 23:00 | 66 | 63 | 93 | 29.91 | SW | 0 | 0.00 |
| 3 | 08/25 | 22:00 | 67 | 63 | 89 | 29.91 | SW | 0 | 0.00 |
| 4 | 08/25 | 21:00 | 69 | 63 | 82 | 29.90 | WSW | 0 | 0.00 |
| 5 | 08/25 | 20:00 | 73 | 63 | 73 | 29.88 | WSW | 0 | 0.00 |
| 6 | 08/25 | 19:00 | 75 | 63 | 68 | 29.87 | WSW | 3 | 0.00 |
| 7 | 08/25 | 18:00 | 76 | 64 | 68 | 29.87 | N | 1 | 0.00 |
| 8 | 08/25 | 17:00 | 76 | 64 | 67 | 29.87 | WNW | 5 | 0.00 |
| 9 | 08/25 | 16:00 | 76 | 63 | 66 | 29.87 | NNW | 4 | 0.00 |
| 10 | 08/25 | 15:00 | 76 | 63 | 66 | 29.87 | WNW | 3 | 0.00 |
| 11 | 08/25 | 14:00 | 75 | 65 | 72 | 29.88 | NNE | 4 | 0.00 |
| 12 | 08/25 | 13:00 | 73 | 63 | 73 | 29.89 | NW | 5 | 0.00 |
| 13 | 08/25 | 12:00 | 72 | 64 | 77 | 29.90 | WNW | 3 | 0.00 |
| 14 | 08/25 | 11:00 | 72 | 63 | 75 | 29.91 | NNE | 9 | 0.00 |
| 15 | 08/25 | 10:00 | 71 | 63 | 77 | 29.91 | NNE | 5 | 0.00 |
| 16 | 08/25 | 09:00 | 69 | 63 | 84 | 29.91 | NNW | 4 | 0.00 |
| 17 | 08/25 | 08:00 | 68 | 64 | 88 | 29.92 | NW | 3 | 0.00 |
| 18 | 08/25 | 07:00 | 66 | 62 | 90 | 29.92 | N | 3 | 0.00 |
| 19 | 08/25 | 06:00 | 66 | 62 | 90 | 29.91 | NW | 0 | 0.00 |
| 20 | 08/25 | 05:00 | 66 | 62 | 89 | 29.91 | NNW | 0 | 0.00 |
| 21 | 08/25 | 04:00 | 66 | 62 | 88 | 29.92 | NNW | 0 | 0.00 |
| 22 | 08/25 | 03:00 | 66 | 62 | 87 | 29.92 | NW | 1 | 0.00 |
| 23 | 08/25 | 02:00 | 66 | 62 | 88 | 29.92 | NNE | 4 | 0.00 |
| 24 | 08/25 | 01:00 | 66 | 62 | 88 | 29.95 | N | 3 | 0.00 |